createdAt,value
2019-03-10T00:02:01.228Z,10.20
2019-03-10T00:04:47.968Z,10.70
2019-03-10T00:07:34.358Z,10.00
2019-03-10T00:10:20.872Z,10.00
2019-03-10T00:13:07.264Z,11.10
2019-03-10T00:15:53.778Z,10.20
2019-03-10T00:18:40.198Z,10.20
2019-03-10T00:21:06.965Z,10.60
2019-03-10T00:23:53.730Z,10.20
2019-03-10T00:26:21.204Z,10.40
2019-03-10T00:29:09.370Z,10.20
2019-03-10T00:31:55.802Z,10.50
2019-03-10T00:34:42.357Z,10.10
2019-03-10T00:37:29.124Z,10.20
2019-03-10T00:40:35.160Z,10.20
2019-03-10T00:43:41.473Z,10.20
2019-03-10T00:46:47.509Z,10.00
2019-03-10T00:49:53.646Z,10.50
2019-03-10T00:52:41.998Z,9.70
2019-03-10T00:55:28.501Z,10.20
2019-03-10T00:58:15.018Z,9.80
2019-03-10T01:00:55.062Z,9.80
2019-03-10T01:03:35.000Z,10.40
2019-03-10T01:06:15.053Z,9.90
2019-03-10T01:08:55.130Z,10.40
2019-03-10T01:11:35.082Z,10.00
2019-03-10T01:14:15.252Z,10.40
2019-03-10T01:16:55.286Z,10.10
2019-03-10T01:19:35.466Z,10.30
2019-03-10T01:22:15.250Z,9.90
2019-03-10T01:24:54.678Z,10.10
2019-03-10T01:27:34.549Z,10.10
2019-03-10T01:30:14.530Z,10.50
2019-03-10T01:32:54.641Z,10.00
2019-03-10T01:35:34.816Z,10.00
2019-03-10T01:38:14.513Z,9.90
2019-03-10T01:40:54.883Z,10.00
2019-03-10T01:43:34.844Z,10.00
2019-03-10T01:46:14.989Z,10.20
2019-03-10T01:48:54.268Z,9.90
2019-03-10T01:51:21.334Z,10.10
2019-03-10T01:54:08.030Z,9.90
2019-03-10T01:56:54.492Z,9.80
2019-03-10T01:59:34.025Z,9.80
2019-03-10T02:02:14.151Z,9.50
2019-03-10T02:04:54.082Z,9.80
2019-03-10T02:07:34.000Z,9.70
2019-03-10T02:10:13.215Z,9.60
2019-03-10T02:12:53.277Z,9.90
2019-03-10T02:15:33.306Z,9.50
2019-03-10T02:18:13.286Z,9.50
2019-03-10T02:20:52.731Z,9.40
2019-03-10T02:23:33.023Z,9.40
2019-03-10T02:26:12.739Z,10.20
2019-03-10T02:28:53.147Z,8.60
2019-03-10T02:31:32.827Z,9.90
2019-03-10T02:34:12.986Z,9.40
2019-03-10T02:36:53.098Z,9.70
2019-03-10T02:39:32.926Z,9.30
2019-03-10T02:42:12.943Z,8.90
2019-03-10T02:44:53.085Z,9.30
2019-03-10T02:47:32.886Z,9.30
2019-03-10T02:50:12.993Z,9.50
2019-03-10T02:52:52.799Z,9.20
2019-03-10T02:55:32.949Z,9.20
2019-03-10T02:58:13.021Z,10.50
2019-03-10T03:00:53.438Z,9.20
2019-03-10T03:03:33.136Z,9.30
2019-03-10T03:06:00.019Z,9.40
2019-03-10T03:08:46.857Z,9.40
2019-03-10T03:11:33.635Z,9.10
2019-03-10T03:14:20.460Z,10.70
2019-03-10T03:17:06.983Z,9.30
2019-03-10T03:19:53.663Z,9.20
2019-03-10T03:22:40.066Z,9.20
2019-03-10T03:25:26.461Z,8.90
2019-03-10T03:28:12.983Z,8.30
2019-03-10T03:30:59.374Z,9.00
2019-03-10T03:33:45.808Z,9.10
2019-03-10T03:36:33.409Z,9.00
2019-03-10T03:39:21.428Z,8.90
2019-03-10T03:42:07.825Z,9.10
2019-03-10T03:44:54.482Z,9.20
2019-03-10T03:47:41.013Z,9.80
2019-03-10T03:50:27.510Z,9.00
2019-03-10T03:53:14.044Z,9.30
2019-03-10T03:56:00.446Z,9.50
2019-03-10T03:58:47.029Z,9.40
2019-03-10T04:01:33.517Z,8.80
2019-03-10T04:04:13.491Z,9.90
2019-03-10T04:06:53.478Z,10.20
2019-03-10T04:09:33.845Z,9.30
2019-03-10T04:12:14.817Z,9.40
2019-03-10T04:14:55.014Z,9.70
2019-03-10T04:17:35.098Z,9.10
2019-03-10T04:20:02.006Z,9.10
2019-03-10T04:22:48.747Z,8.80
2019-03-10T04:25:35.149Z,9.10
2019-03-10T04:28:21.590Z,8.90
2019-03-10T04:31:08.111Z,9.00
2019-03-10T04:36:41.038Z,9.00
2019-03-10T04:39:27.791Z,8.50
2019-03-10T04:42:14.322Z,8.90
2019-03-10T04:45:01.073Z,9.50
2019-03-10T04:47:28.007Z,8.90
2019-03-10T04:50:16.331Z,8.90
2019-03-10T04:52:43.084Z,8.90
2019-03-10T04:55:24.541Z,8.90
2019-03-10T04:58:11.142Z,8.90
2019-03-10T05:00:52.727Z,8.90
2019-03-10T05:03:31.890Z,8.30
2019-03-10T05:06:11.900Z,8.20
2019-03-10T05:08:51.718Z,8.90
2019-03-10T05:11:32.158Z,8.70
2019-03-10T05:14:11.892Z,8.90
2019-03-10T05:16:52.006Z,8.60
2019-03-10T05:19:31.795Z,8.70
2019-03-10T05:22:11.463Z,8.80
2019-03-10T05:24:51.214Z,8.70
2019-03-10T05:27:30.681Z,8.60
2019-03-10T05:30:10.418Z,9.40
2019-03-10T05:32:51.054Z,8.80
2019-03-10T05:35:30.517Z,9.80
2019-03-10T05:38:10.403Z,8.00
2019-03-10T05:40:50.494Z,9.00
2019-03-10T05:43:29.853Z,7.70
2019-03-10T05:46:16.356Z,7.70
2019-03-10T05:49:02.781Z,7.60
2019-03-10T05:51:49.561Z,7.50
2019-03-10T05:54:16.765Z,7.20
2019-03-10T05:57:03.418Z,7.70
2019-03-10T05:59:42.798Z,7.80
2019-03-10T06:02:22.769Z,7.80
2019-03-10T06:05:02.049Z,7.40
2019-03-10T06:07:42.037Z,7.80
2019-03-10T06:10:22.298Z,7.60
2019-03-10T06:13:02.190Z,7.20
2019-03-10T06:15:28.959Z,7.40
2019-03-10T06:18:15.514Z,7.60
2019-03-10T06:20:42.295Z,7.70
2019-03-10T06:23:28.810Z,7.50
2019-03-10T06:25:55.561Z,7.90
2019-03-10T06:28:42.474Z,7.50
2019-03-10T06:31:09.336Z,7.40
2019-03-10T06:33:55.780Z,7.50
2019-03-10T06:36:42.193Z,8.10
2019-03-10T06:39:28.582Z,7.50
2019-03-10T06:41:55.360Z,7.70
2019-03-10T06:44:41.861Z,7.50
2019-03-10T06:47:28.396Z,7.30
2019-03-10T06:49:55.391Z,7.60
2019-03-10T06:52:41.995Z,7.50
2019-03-10T06:55:28.373Z,7.50
2019-03-10T06:57:56.021Z,8.30
2019-03-10T07:00:35.417Z,7.50
2019-03-10T07:03:15.777Z,7.90
2019-03-10T07:05:55.658Z,7.50
2019-03-10T07:08:35.026Z,7.40
2019-03-10T07:13:50.497Z,7.50
2019-03-10T07:16:36.982Z,7.50
2019-03-10T07:19:04.203Z,7.50
2019-03-10T07:21:50.836Z,7.50
2019-03-10T07:24:37.259Z,7.40
2019-03-10T07:30:38.137Z,6.60
2019-03-10T07:33:24.980Z,6.90
2019-03-10T07:36:11.393Z,7.50
2019-03-10T07:39:17.469Z,7.50
2019-03-10T07:42:23.885Z,7.30
2019-03-10T07:45:30.310Z,7.70
2019-03-10T07:48:36.342Z,8.80
2019-03-10T07:51:42.642Z,8.10
2019-03-10T07:54:48.965Z,7.50
2019-03-10T07:57:55.158Z,6.60
2019-03-10T08:03:34.585Z,7.50
2019-03-10T08:06:34.179Z,7.90
2019-03-10T08:09:34.185Z,7.50
2019-03-10T08:12:25.558Z,8.10
2019-03-10T08:15:24.789Z,7.60
2019-03-10T08:18:30.615Z,7.40
2019-03-10T08:21:12.461Z,7.10
2019-03-10T08:24:01.352Z,7.50
2019-03-10T08:26:48.548Z,8.70
2019-03-10T08:29:54.596Z,7.40
2019-03-10T08:33:00.915Z,7.80
2019-03-10T08:36:07.147Z,7.10
2019-03-10T08:39:13.191Z,9.00
2019-03-10T08:42:20.437Z,7.50
2019-03-10T08:45:26.783Z,6.80
2019-03-10T08:48:20.767Z,7.40
2019-03-10T08:51:26.814Z,7.60
2019-03-10T08:54:33.359Z,7.30
2019-03-10T08:57:09.754Z,7.70
2019-03-10T09:00:09.287Z,7.70
2019-03-10T09:03:08.901Z,7.80
2019-03-10T09:05:57.448Z,7.90
2019-03-10T09:09:02.766Z,7.90
2019-03-10T09:11:52.029Z,7.80
2019-03-10T09:14:41.415Z,8.30
2019-03-10T09:17:40.614Z,8.00
2019-03-10T09:20:39.856Z,8.10
2019-03-10T09:23:41.938Z,8.20
2019-03-10T09:26:39.351Z,8.20
2019-03-10T09:29:25.618Z,8.20
2019-03-10T09:32:21.840Z,8.50
2019-03-10T09:35:20.938Z,8.80
2019-03-10T09:38:06.581Z,8.90
2019-03-10T09:41:06.025Z,9.10
2019-03-10T09:44:00.582Z,9.20
2019-03-10T09:46:59.410Z,9.00
2019-03-10T09:49:55.758Z,9.60
2019-03-10T09:52:42.528Z,8.80
2019-03-10T09:55:48.593Z,9.80
2019-03-10T09:58:54.933Z,9.90
2019-03-10T10:01:54.419Z,10.90
2019-03-10T10:04:57.195Z,10.30
2019-03-10T10:08:02.018Z,10.30
2019-03-10T10:11:01.500Z,11.90
2019-03-10T10:14:00.785Z,10.90
2019-03-10T10:16:52.973Z,11.30
2019-03-10T10:19:52.043Z,10.90
2019-03-10T10:22:54.109Z,10.90
2019-03-10T10:25:40.680Z,10.90
2019-03-10T10:28:27.375Z,10.90
2019-03-10T10:31:33.569Z,11.00
2019-03-10T10:34:39.851Z,11.10
2019-03-10T10:37:46.039Z,11.60
2019-03-10T10:40:52.267Z,11.50
2019-03-10T10:43:58.347Z,12.60
2019-03-10T10:50:10.612Z,11.70
2019-03-10T10:53:17.054Z,11.30
2019-03-10T10:56:23.306Z,12.10
2019-03-10T10:59:09.845Z,11.50
2019-03-10T11:01:58.035Z,11.60
2019-03-10T11:10:57.769Z,11.40
2019-03-10T11:13:54.742Z,11.30
2019-03-10T11:16:54.743Z,11.70
2019-03-10T11:19:28.754Z,11.70
2019-03-10T11:22:35.185Z,11.90
2019-03-10T11:25:41.278Z,11.90
2019-03-10T11:28:47.466Z,13.20
2019-03-10T11:31:53.706Z,12.80
2019-03-10T11:35:00.371Z,12.60
2019-03-10T11:41:12.777Z,12.50
2019-03-10T11:44:10.275Z,13.10
2019-03-10T11:47:16.450Z,12.50
2019-03-10T11:53:29.013Z,12.40
2019-03-10T11:56:35.252Z,12.30
2019-03-10T12:02:28.396Z,12.50
2019-03-10T12:05:34.484Z,12.50
2019-03-10T12:08:40.757Z,12.10
2019-03-10T12:11:27.271Z,12.60
2019-03-10T12:16:40.968Z,13.50
2019-03-10T12:19:27.521Z,14.00
2019-03-10T12:22:13.946Z,13.70
2019-03-10T12:25:00.589Z,13.60
2019-03-10T12:36:06.704Z,15.30
2019-03-10T12:38:53.205Z,15.30
2019-03-10T12:41:39.613Z,15.30
2019-03-10T12:44:26.576Z,15.30
2019-03-10T12:52:46.200Z,14.00
2019-03-10T13:01:19.234Z,13.20
2019-03-10T13:09:57.021Z,14.90
2019-03-10T13:12:23.859Z,15.20
2019-03-10T13:15:10.617Z,15.00
2019-03-10T13:17:57.036Z,15.60
2019-03-10T13:20:43.726Z,16.40
2019-03-10T13:23:30.290Z,16.40
2019-03-10T13:26:16.838Z,15.80
2019-03-10T13:28:43.852Z,16.40
2019-03-10T13:31:10.884Z,16.60
2019-03-10T13:33:57.522Z,17.20
2019-03-10T13:36:46.359Z,17.60
2019-03-10T13:39:32.946Z,15.20
2019-03-10T13:42:19.362Z,16.40
2019-03-10T13:45:06.029Z,15.00
2019-03-10T13:47:52.792Z,14.50
2019-03-10T13:50:39.242Z,13.70
2019-03-10T13:53:25.870Z,13.90
2019-03-10T13:56:12.711Z,13.10
2019-03-10T13:58:39.843Z,12.50
2019-03-10T14:01:19.128Z,12.50
2019-03-10T14:04:00.214Z,12.30
2019-03-10T14:06:40.096Z,11.60
2019-03-10T14:09:48.162Z,11.50
2019-03-10T14:12:34.659Z,10.90
2019-03-10T14:15:21.186Z,10.70
2019-03-10T14:18:07.796Z,11.10
2019-03-10T14:23:40.767Z,12.40
2019-03-10T14:32:00.502Z,15.60
2019-03-10T14:34:47.270Z,16.00
2019-03-10T14:37:33.804Z,16.70
2019-03-10T14:40:20.718Z,16.50
2019-03-10T14:43:07.396Z,16.90
2019-03-10T14:45:53.815Z,16.80
2019-03-10T14:48:40.296Z,17.10
2019-03-10T14:51:27.041Z,16.20
2019-03-10T14:54:13.492Z,16.70
2019-03-10T14:57:02.475Z,17.40
2019-03-10T14:59:41.650Z,17.70
2019-03-10T15:02:09.152Z,17.90
2019-03-10T15:04:55.599Z,18.80
2019-03-10T15:07:42.051Z,18.60
2019-03-10T15:10:28.530Z,17.90
2019-03-10T15:12:55.606Z,18.20
2019-03-10T15:15:42.291Z,18.20
2019-03-10T15:18:28.869Z,17.40
2019-03-10T15:21:15.301Z,17.20
2019-03-10T15:24:01.752Z,16.80
2019-03-10T15:26:48.278Z,16.70
2019-03-10T15:29:34.731Z,17.40
2019-03-10T15:32:21.108Z,15.00
2019-03-10T15:35:07.995Z,13.90
2019-03-10T15:37:54.478Z,13.60
2019-03-10T15:40:41.147Z,13.20
2019-03-10T15:43:08.131Z,14.10
2019-03-10T15:45:54.555Z,14.40
2019-03-10T15:48:41.114Z,15.20
2019-03-10T15:51:27.638Z,15.10
2019-03-10T15:54:14.049Z,14.70
2019-03-10T15:59:28.148Z,13.20
2019-03-10T16:01:55.059Z,13.10
2019-03-10T16:04:41.857Z,13.00
2019-03-10T16:07:30.145Z,13.10
2019-03-10T16:10:16.770Z,13.50
2019-03-10T16:13:03.298Z,13.00
2019-03-10T16:15:30.450Z,13.00
2019-03-10T16:18:17.072Z,13.40
2019-03-10T16:21:03.919Z,13.50
2019-03-10T16:23:50.373Z,14.00
2019-03-10T16:26:37.562Z,12.90
2019-03-10T16:29:24.151Z,13.10
2019-03-10T16:32:10.577Z,12.80
2019-03-10T16:34:37.429Z,12.80
2019-03-10T16:37:23.995Z,12.60
2019-03-10T16:40:11.198Z,12.50
2019-03-10T16:42:57.673Z,12.50
2019-03-10T16:45:44.220Z,12.40
2019-03-10T16:48:31.135Z,12.30
2019-03-10T16:51:17.662Z,12.10
2019-03-10T16:54:04.203Z,12.10
2019-03-10T16:56:50.860Z,11.80
2019-03-10T16:59:30.510Z,11.10
2019-03-10T17:02:10.731Z,12.00
2019-03-10T17:10:49.145Z,11.60
2019-03-10T17:18:49.313Z,11.20
2019-03-10T17:21:35.847Z,11.20
2019-03-10T17:24:22.454Z,11.30
2019-03-10T17:27:10.232Z,10.80
2019-03-10T17:32:24.935Z,10.90
2019-03-10T17:57:24.381Z,10.70
2019-03-10T17:59:51.632Z,10.80
2019-03-10T18:08:11.454Z,10.40
2019-03-10T18:10:38.313Z,10.50
2019-03-10T18:13:25.075Z,10.40
2019-03-10T18:16:11.729Z,9.80
2019-03-10T18:18:58.578Z,10.20
2019-03-10T18:21:45.103Z,12.00
2019-03-10T18:24:31.525Z,10.40
2019-03-10T18:27:18.089Z,10.10
2019-03-10T18:30:05.602Z,10.30
2019-03-10T18:32:52.444Z,10.10
2019-03-10T18:35:39.349Z,10.00
2019-03-10T18:38:26.297Z,10.00
2019-03-10T18:41:12.813Z,10.90
2019-03-10T18:43:59.607Z,10.10
2019-03-10T18:46:46.135Z,9.90
2019-03-10T18:49:32.833Z,10.00
2019-03-10T18:52:19.407Z,9.90
2019-03-10T18:55:07.397Z,9.80
2019-03-10T18:57:55.066Z,9.80
2019-03-10T19:00:34.846Z,9.70
2019-03-10T19:03:14.766Z,9.80
2019-03-10T19:05:55.134Z,10.20
2019-03-10T19:08:34.782Z,9.70
2019-03-10T19:11:14.192Z,9.80
2019-03-10T19:13:54.729Z,10.20
2019-03-10T19:16:34.277Z,9.20
2019-03-10T19:19:14.339Z,11.00
2019-03-10T19:21:54.380Z,8.80
2019-03-10T19:24:33.929Z,9.30
2019-03-10T19:27:13.738Z,9.40
2019-03-10T19:29:53.831Z,9.30
2019-03-10T19:32:33.821Z,10.10
2019-03-10T19:35:13.898Z,8.80
2019-03-10T19:37:53.898Z,8.80
2019-03-10T19:40:33.163Z,8.40
2019-03-10T19:43:00.392Z,8.20
2019-03-10T19:45:47.001Z,8.60
2019-03-10T19:48:33.781Z,7.70
2019-03-10T19:51:20.369Z,8.60
2019-03-10T19:53:47.319Z,8.40
2019-03-10T19:56:34.029Z,8.50
2019-03-10T19:59:00.793Z,9.20
2019-03-10T20:01:47.497Z,8.40
2019-03-10T20:04:34.299Z,8.50
2019-03-10T20:10:08.266Z,8.30
2019-03-10T20:12:54.699Z,8.00
2019-03-10T20:15:21.902Z,8.00
2019-03-10T20:18:08.323Z,8.00
2019-03-10T20:20:35.113Z,8.40
2019-03-10T20:23:21.635Z,7.90
2019-03-10T20:26:08.509Z,7.80
2019-03-10T20:28:54.931Z,8.30
2019-03-10T20:31:41.941Z,8.50
2019-03-10T20:34:28.784Z,8.00
2019-03-10T20:36:55.634Z,8.10
2019-03-10T20:39:42.101Z,7.30
2019-03-10T20:42:28.540Z,6.10
2019-03-10T20:47:42.338Z,4.30
2019-03-10T20:50:28.868Z,4.30
2019-03-10T20:52:55.665Z,3.60
2019-03-10T20:55:42.806Z,4.50
2019-03-10T20:58:29.340Z,4.40
2019-03-10T21:00:56.225Z,4.60
2019-03-10T21:06:29.260Z,4.90
2019-03-10T21:08:56.138Z,4.90
2019-03-10T21:11:42.700Z,4.90
2019-03-10T21:14:29.508Z,3.80
2019-03-10T21:17:16.040Z,5.00
2019-03-10T21:20:02.794Z,6.20
2019-03-10T21:22:49.315Z,5.40
2019-03-10T21:28:03.174Z,5.40
2019-03-10T21:33:36.412Z,5.00
2019-03-10T21:36:23.121Z,4.60
2019-03-10T21:39:09.642Z,4.80
2019-03-10T21:41:56.393Z,4.00
2019-03-10T21:44:26.991Z,5.70
2019-03-10T21:47:12.048Z,4.60
2019-03-10T21:49:58.433Z,5.10
2019-03-10T21:52:44.998Z,4.60
2019-03-10T21:55:31.646Z,5.50
2019-03-10T21:58:18.206Z,4.50
2019-03-10T22:00:57.914Z,4.60
2019-03-10T22:03:38.165Z,4.90
2019-03-10T22:06:05.534Z,4.70
2019-03-10T22:08:51.941Z,4.80
2019-03-10T22:11:18.738Z,4.60
2019-03-10T22:14:05.221Z,4.60
2019-03-10T22:16:51.697Z,4.40
2019-03-10T22:19:38.254Z,3.80
2019-03-10T22:22:24.660Z,4.50
2019-03-10T22:25:13.083Z,4.10
2019-03-10T22:27:40.397Z,4.40
2019-03-10T22:30:26.799Z,4.40
2019-03-10T22:33:13.263Z,4.40
2019-03-10T22:35:59.761Z,4.60
2019-03-10T22:38:46.496Z,5.80
2019-03-10T22:41:33.040Z,4.30
2019-03-10T22:44:19.457Z,5.50
2019-03-10T22:46:46.213Z,4.00
2019-03-10T22:49:32.737Z,4.30
2019-03-10T22:52:19.298Z,4.30
2019-03-10T22:57:52.385Z,4.10
2019-03-10T23:00:52.092Z,2.80
2019-03-10T23:03:31.792Z,3.00
2019-03-10T23:06:11.842Z,3.80
2019-03-10T23:08:38.710Z,3.70
2019-03-10T23:11:25.265Z,3.60
2019-03-10T23:14:11.834Z,3.50
2019-03-10T23:16:58.245Z,4.00
2019-03-10T23:19:44.745Z,3.60
2019-03-10T23:22:31.259Z,3.60
2019-03-10T23:25:17.788Z,3.70
2019-03-10T23:28:04.418Z,3.50
2019-03-10T23:30:50.833Z,2.90
2019-03-10T23:33:37.498Z,3.40
2019-03-10T23:36:24.294Z,3.70
2019-03-10T23:39:10.780Z,3.60
2019-03-10T23:41:57.640Z,3.60
2019-03-10T23:44:44.065Z,4.10
2019-03-10T23:47:30.652Z,5.50
2019-03-10T23:50:17.289Z,4.00
2019-03-10T23:53:03.805Z,3.50
2019-03-10T23:55:50.309Z,5.20
2019-03-10T23:58:36.731Z,4.30
